Time;durP1;ratioP1;P1;durP2;ratioP2;P2;SDS_P1;SDS_P2;PMS_P1;PMS_P2;Temp;Humidity;BMP_temperature;BMP_pressure;BME280_temperature;BME280_humidity;BME280_pressure;Samples;Min_cycle;Max_cycle;Signal;HPM_P1;HPM_P2
2022/11/15 00:01:22;;;;;;;11.68;7.65;;;17.10;1.00;;;;;;4863022;29;20113;-51
2022/11/15 00:04:07;;;;;;;10.60;7.55;;;17.10;1.00;;;;;;4862985;29;19931;-52
2022/11/15 00:06:53;;;;;;;13.82;8.65;;;17.10;1.00;;;;;;4863104;29;20056;-53
2022/11/15 00:09:38;;;;;;;10.68;7.55;;;17.10;1.00;;;;;;4862566;29;20138;-52
2022/11/15 00:12:30;;;;;;;10.27;7.35;;;17.00;1.00;;;;;;4862783;29;20129;-51
2022/11/15 00:15:15;;;;;;;13.32;7.88;;;17.00;1.00;;;;;;4862996;29;20860;-56
2022/11/15 00:18:01;;;;;;;12.93;7.72;;;17.00;1.00;;;;;;4862961;29;20056;-54
2022/11/15 00:20:46;;;;;;;10.13;7.28;;;17.00;1.00;;;;;;4862305;29;20566;-53
2022/11/15 00:23:33;;;;;;;11.18;7.50;;;17.00;1.00;;;;;;4863021;29;20061;-52
2022/11/15 00:26:18;;;;;;;11.05;7.20;;;17.00;1.00;;;;;;4862828;29;20193;-54
2022/11/15 00:29:04;;;;;;;11.38;8.88;;;17.00;1.00;;;;;;4862251;29;20085;-53
2022/11/15 00:31:49;;;;;;;12.27;8.10;;;17.00;1.00;;;;;;4862236;29;20072;-54
2022/11/15 00:34:34;;;;;;;10.50;7.72;;;16.90;1.00;;;;;;4862542;29;20416;-55
2022/11/15 00:37:20;;;;;;;11.77;8.10;;;16.90;1.00;;;;;;4862433;29;20057;-50
2022/11/15 00:40:06;;;;;;;9.25;6.60;;;16.90;1.00;;;;;;4862015;29;20460;-53
2022/11/15 00:42:51;;;;;;;11.60;7.05;;;16.90;1.00;;;;;;4862239;29;20512;-51
2022/11/15 00:45:37;;;;;;;13.52;8.45;;;16.90;1.00;;;;;;4862792;29;20052;-52
2022/11/15 00:48:22;;;;;;;13.05;9.25;;;16.90;1.00;;;;;;4862678;29;20060;-51
2022/11/15 00:51:08;;;;;;;10.90;7.68;;;16.90;1.00;;;;;;4862235;29;20060;-57
2022/11/15 00:53:53;;;;;;;11.77;7.38;;;16.90;1.00;;;;;;4862248;29;20056;-55
2022/11/15 00:56:39;;;;;;;11.63;7.80;;;16.90;1.00;;;;;;4861865;29;20056;-54
2022/11/15 00:59:25;;;;;;;11.18;7.60;;;16.80;1.00;;;;;;4862176;29;20060;-57
2022/11/15 01:02:10;;;;;;;11.15;7.78;;;16.80;1.00;;;;;;4862328;29;20150;-53
2022/11/15 01:04:56;;;;;;;13.25;8.68;;;16.80;1.00;;;;;;4862151;29;20531;-52
2022/11/15 01:07:41;;;;;;;11.95;7.82;;;16.80;1.00;;;;;;4862047;29;20053;-54
2022/11/15 01:10:26;;;;;;;11.48;7.72;;;16.80;1.00;;;;;;4860876;29;20072;-54
2022/11/15 01:13:12;;;;;;;11.68;7.30;;;16.80;1.00;;;;;;4861956;29;20060;-50
2022/11/15 01:15:57;;;;;;;13.45;8.82;;;16.80;1.00;;;;;;4861834;29;20060;-52
2022/11/15 01:18:43;;;;;;;12.25;8.55;;;16.70;1.00;;;;;;4861391;29;20523;-54
2022/11/15 01:21:29;;;;;;;10.82;7.97;;;16.70;1.00;;;;;;4861631;29;20058;-53
2022/11/15 01:24:14;;;;;;;13.55;8.57;;;16.70;1.00;;;;;;4861742;29;20143;-54
2022/11/15 01:26:59;;;;;;;14.55;8.63;;;16.70;1.00;;;;;;4861547;29;20047;-52
2022/11/15 01:29:45;;;;;;;10.75;7.65;;;16.70;1.00;;;;;;4861158;29;20423;-56
2022/11/15 01:32:31;;;;;;;13.40;8.55;;;16.70;1.00;;;;;;4861538;29;20552;-51
2022/11/15 01:35:16;;;;;;;11.38;8.45;;;16.70;1.00;;;;;;4861753;29;20065;-54
2022/11/15 01:38:02;;;;;;;12.60;7.60;;;16.70;1.00;;;;;;4861349;29;20170;-55
2022/11/15 01:40:48;;;;;;;14.32;8.77;;;16.70;1.00;;;;;;4861129;29;20144;-53
2022/11/15 01:43:36;;;;;;;13.20;7.95;;;16.70;1.00;;;;;;4861210;29;20129;-55
2022/11/15 01:46:28;;;;;;;12.50;8.02;;;16.70;1.00;;;;;;4862062;29;20068;-49
2022/11/15 01:49:20;;;;;;;13.00;8.15;;;16.70;1.00;;;;;;4861345;29;20227;-56
2022/11/15 01:52:11;;;;;;;12.55;8.05;;;16.60;1.00;;;;;;4861759;29;20057;-52
2022/11/15 01:55:11;;;;;;;15.15;9.95;;;16.60;1.00;;;;;;4860903;29;20515;-53
2022/11/15 01:58:00;;;;;;;11.90;8.13;;;16.60;1.00;;;;;;4861629;29;20072;-53
2022/11/15 02:00:47;;;;;;;12.90;8.20;;;16.70;1.00;;;;;;4860910;29;20057;-54
2022/11/15 02:03:50;;;;;;;12.57;8.13;;;16.60;1.00;;;;;;4860814;29;20048;-55
2022/11/15 02:06:36;;;;;;;13.27;8.88;;;16.60;1.00;;;;;;4860543;29;20151;-53
2022/11/15 02:09:22;;;;;;;17.73;9.50;;;16.60;1.00;;;;;;4873240;29;20056;-49
2022/11/15 02:12:09;;;;;;;12.40;8.10;;;16.60;1.00;;;;;;4861298;29;20056;-54
2022/11/15 02:14:55;;;;;;;14.75;8.77;;;16.60;1.00;;;;;;4860919;29;20484;-52
2022/11/15 02:17:41;;;;;;;13.68;8.00;;;16.60;1.00;;;;;;4861701;29;20052;-52
2022/11/15 02:21:03;;;;;;;13.52;8.18;;;16.60;1.00;;;;;;4860916;29;20056;-53
2022/11/15 02:24:13;;;;;;;13.25;9.20;;;16.50;1.00;;;;;;4865334;29;20531;-53
2022/11/15 02:27:41;;;;;;;14.10;8.40;;;16.50;1.00;;;;;;4865036;29;20129;-53
2022/11/15 02:30:47;;;;;;;10.88;7.82;;;16.50;1.00;;;;;;4864374;29;20052;-54
2022/11/15 02:34:04;;;;;;;13.40;8.68;;;16.50;1.00;;;;;;4864648;29;20093;-53
2022/11/15 02:37:20;;;;;;;12.27;7.88;;;16.50;1.00;;;;;;4864862;29;20141;-51
2022/11/15 02:40:45;;;;;;;13.10;8.02;;;16.50;1.00;;;;;;4864398;29;20067;-53
2022/11/15 02:43:59;;;;;;;12.52;7.93;;;16.50;1.00;;;;;;4864293;29;20399;-50
2022/11/15 02:47:14;;;;;;;12.63;8.18;;;16.50;1.00;;;;;;4864519;29;20044;-52
2022/11/15 02:50:06;;;;;;;;;;;16.40;1.00;;;;;;4864605;29;20109;-56
2022/11/15 02:52:51;;;;;;;13.55;8.02;;;16.40;1.00;;;;;;4864354;29;19935;-54
2022/11/15 02:55:41;;;;;;;12.40;7.80;;;16.40;1.00;;;;;;4865068;29;20053;-56
2022/11/15 02:58:29;;;;;;;13.43;8.55;;;16.40;1.00;;;;;;4863862;29;20530;-50
2022/11/15 03:01:46;;;;;;;14.02;8.57;;;16.40;1.00;;;;;;4864547;29;20057;-55
2022/11/15 03:04:47;;;;;;;15.20;8.68;;;16.40;1.00;;;;;;4864441;29;20137;-53
2022/11/15 03:07:53;;;;;;;14.35;8.15;;;16.40;1.00;;;;;;4864308;29;20074;-57
2022/11/15 03:10:51;;;;;;;13.10;8.05;;;16.40;1.00;;;;;;4864142;29;20132;-54
2022/11/15 03:13:44;;;;;;;18.42;10.20;;;16.40;1.00;;;;;;4864211;29;20065;-54
2022/11/15 03:16:36;;;;;;;16.92;8.55;;;16.40;1.00;;;;;;4864181;29;20068;-50
2022/11/15 03:19:56;;;;;;;15.50;8.65;;;16.30;1.00;;;;;;4863165;29;20064;-53
2022/11/15 03:22:46;;;;;;;13.45;8.00;;;16.40;1.00;;;;;;4863880;29;20121;-55
2022/11/15 03:25:34;;;;;;;15.75;8.95;;;16.40;1.00;;;;;;4863816;29;20100;-56
2022/11/15 03:28:31;;;;;;;13.95;9.02;;;16.30;1.00;;;;;;4863555;29;20073;-50
2022/11/15 03:34:34;;;;;;;13.00;7.65;;;16.30;1.00;;;;;;4863908;29;20065;-56
2022/11/15 03:37:25;;;;;;;17.92;8.32;;;16.30;1.00;;;;;;4863294;29;20114;-54
2022/11/15 03:40:11;;;;;;;14.20;8.15;;;16.30;1.00;;;;;;4863045;29;20056;-53
2022/11/15 03:43:05;;;;;;;12.98;8.20;;;16.30;1.00;;;;;;4863489;29;20058;-54
2022/11/15 03:45:58;;;;;;;15.00;8.90;;;16.30;1.00;;;;;;4863463;29;20056;-51
2022/11/15 03:48:50;;;;;;;13.93;8.23;;;16.30;1.00;;;;;;4863316;29;20076;-54
2022/11/15 03:51:36;;;;;;;16.63;8.85;;;16.30;1.00;;;;;;4863585;29;20145;-54
2022/11/15 03:54:21;;;;;;;11.98;7.60;;;16.30;1.00;;;;;;4863246;29;20056;-51
2022/11/15 03:57:06;;;;;;;15.68;7.82;;;16.30;1.00;;;;;;4863644;29;20060;-52
2022/11/15 03:59:52;;;;;;;15.10;8.40;;;16.20;1.00;;;;;;4862667;29;20057;-54
2022/11/15 04:02:37;;;;;;;18.25;8.73;;;16.20;1.00;;;;;;4863004;29;20063;-56
2022/11/15 04:05:23;;;;;;;12.95;7.53;;;16.20;1.00;;;;;;4863303;29;20129;-55
2022/11/15 04:08:08;;;;;;;14.30;8.40;;;16.30;1.00;;;;;;4863226;29;20132;-52
2022/11/15 04:10:54;;;;;;;13.82;7.22;;;16.20;1.00;;;;;;4862781;29;20056;-54
2022/11/15 04:13:40;;;;;;;13.38;7.70;;;16.30;1.00;;;;;;4862907;29;20076;-51
2022/11/15 04:16:25;;;;;;;16.80;9.02;;;16.20;1.00;;;;;;4862783;29;20056;-56
2022/11/15 04:25:18;;;;;;;13.77;8.25;;;16.20;1.00;;;;;;4862896;29;20057;-52
2022/11/15 04:28:09;;;;;;;14.65;8.35;;;16.20;1.00;;;;;;4862850;29;20062;-53
2022/11/15 04:30:54;;;;;;;15.88;8.43;;;16.20;1.00;;;;;;4862417;29;20064;-54
2022/11/15 04:33:40;;;;;;;14.23;8.18;;;16.20;1.00;;;;;;4862455;29;20064;-51
2022/11/15 04:39:29;;;;;;;15.00;8.60;;;16.20;1.00;;;;;;4862162;29;20057;-55
2022/11/15 04:42:14;;;;;;;13.32;7.70;;;16.10;1.00;;;;;;4862668;29;20060;-51
2022/11/15 04:45:00;;;;;;;14.88;7.75;;;16.10;1.00;;;;;;4861884;29;20052;-55
2022/11/15 04:47:45;;;;;;;14.82;8.50;;;16.20;1.00;;;;;;4862090;29;20060;-53
2022/11/15 04:50:31;;;;;;;15.90;7.65;;;16.10;1.00;;;;;;4861916;29;20119;-54
2022/11/15 04:53:16;;;;;;;13.73;8.90;;;16.10;1.00;;;;;;4862842;29;20508;-56
2022/11/15 04:56:02;;;;;;;14.73;7.28;;;16.10;1.00;;;;;;4862439;29;20056;-54
2022/11/15 04:58:50;;;;;;;11.65;7.47;;;16.10;1.00;;;;;;4861079;29;20090;-56
2022/11/15 05:01:36;;;;;;;13.23;7.15;;;16.10;1.00;;;;;;4855724;29;20056;-55
2022/11/15 05:04:28;;;;;;;13.77;7.75;;;16.10;1.00;;;;;;4860470;29;20420;-55
2022/11/15 05:07:13;;;;;;;16.48;7.30;;;16.10;1.00;;;;;;4861787;29;20059;-56
2022/11/15 05:09:59;;;;;;;17.08;7.78;;;16.10;1.00;;;;;;4861868;29;20055;-55
2022/11/15 05:12:46;;;;;;;16.00;8.43;;;16.10;1.00;;;;;;4862341;29;20073;-54
2022/11/15 05:15:31;;;;;;;18.85;8.05;;;16.10;1.00;;;;;;4861964;29;20056;-53
2022/11/15 05:18:16;;;;;;;18.10;10.02;;;16.10;1.00;;;;;;4862058;29;20061;-55
2022/11/15 05:24:21;;;;;;;14.10;7.68;;;16.10;1.00;;;;;;4871471;29;20507;-53
2022/11/15 05:27:06;;;;;;;17.35;8.20;;;16.00;1.00;;;;;;4861273;29;20110;-55
2022/11/15 05:29:52;;;;;;;18.80;8.70;;;16.10;1.00;;;;;;4861349;29;20146;-55
2022/11/15 05:32:37;;;;;;;19.73;9.23;;;16.00;1.00;;;;;;4861755;29;20109;-54
2022/11/15 05:35:34;;;;;;;12.30;7.47;;;16.00;1.00;;;;;;4862217;29;20080;-54
2022/11/15 05:38:19;;;;;;;17.33;8.88;;;16.00;1.00;;;;;;4861182;29;20189;-54
2022/11/15 05:41:05;;;;;;;20.80;9.15;;;16.00;1.00;;;;;;4861960;29;20060;-55
2022/11/15 05:43:51;;;;;;;15.43;8.45;;;16.00;1.00;;;;;;4861300;29;20136;-60
2022/11/15 05:46:40;;;;;;;17.80;8.65;;;16.00;1.00;;;;;;4860611;29;20199;-52
2022/11/15 05:49:32;;;;;;;22.63;8.32;;;16.00;1.00;;;;;;4860035;29;20424;-55
2022/11/15 05:52:25;;;;;;;15.65;9.02;;;16.00;1.00;;;;;;4859018;29;20530;-55
2022/11/15 05:55:10;;;;;;;17.20;8.27;;;16.00;1.00;;;;;;4860614;29;20508;-52
2022/11/15 05:57:56;;;;;;;15.18;8.98;;;16.00;1.00;;;;;;4861298;29;20198;-52
2022/11/15 06:00:43;;;;;;;18.10;8.25;;;16.00;1.00;;;;;;4861059;29;20530;-52
2022/11/15 06:03:28;;;;;;;19.42;8.93;;;16.00;1.00;;;;;;4861126;29;20057;-56
2022/11/15 06:06:14;;;;;;;14.23;7.85;;;16.00;1.00;;;;;;4861008;29;20063;-52
2022/11/15 06:09:01;;;;;;;22.50;9.23;;;16.00;1.00;;;;;;4860603;29;20420;-55
2022/11/15 06:11:47;;;;;;;17.88;9.18;;;16.00;1.00;;;;;;4861249;29;20102;-53
2022/11/15 06:14:32;;;;;;;17.50;9.07;;;16.00;1.00;;;;;;4861014;29;20526;-50
2022/11/15 06:17:18;;;;;;;18.55;9.70;;;16.00;1.00;;;;;;4861217;29;20077;-55
2022/11/15 06:20:04;;;;;;;17.08;9.10;;;15.90;1.00;;;;;;4860680;29;20086;-55
2022/11/15 06:22:49;;;;;;;21.05;9.75;;;15.90;1.00;;;;;;4861244;29;20085;-54
2022/11/15 06:25:35;;;;;;;19.27;8.95;;;15.90;1.00;;;;;;4861083;29;20201;-52
2022/11/15 06:28:20;;;;;;;14.30;7.70;;;15.90;1.00;;;;;;4861103;29;20060;-52
2022/11/15 06:31:08;;;;;;;17.10;9.48;;;15.90;1.00;;;;;;4860814;29;20125;-51
2022/11/15 06:33:53;;;;;;;18.35;10.25;;;15.90;1.00;;;;;;4860760;29;20449;-51
2022/11/15 06:36:38;;;;;;;16.38;8.20;;;15.90;1.00;;;;;;4861187;29;20052;-54
2022/11/15 06:39:24;;;;;;;18.35;9.15;;;15.90;1.00;;;;;;4860338;29;20128;-55
2022/11/15 06:42:09;;;;;;;14.60;8.45;;;15.90;1.00;;;;;;4861355;29;20056;-54
2022/11/15 06:44:55;;;;;;;18.15;8.60;;;15.90;1.00;;;;;;4860607;29;20059;-53
2022/11/15 06:47:46;;;;;;;19.73;9.02;;;15.90;1.00;;;;;;4860701;29;20053;-54
2022/11/15 06:50:31;;;;;;;13.85;8.80;;;15.90;1.00;;;;;;4860790;29;20059;-57
2022/11/15 06:53:17;;;;;;;14.70;9.10;;;15.90;1.00;;;;;;4860661;29;20114;-55
2022/11/15 06:56:05;;;;;;;13.85;8.23;;;15.90;1.00;;;;;;4860590;29;20062;-53
2022/11/15 06:58:50;;;;;;;18.17;9.00;;;15.90;1.00;;;;;;4860459;29;20072;-53
2022/11/15 07:01:35;;;;;;;15.13;8.85;;;15.90;1.00;;;;;;4860435;29;20408;-49
2022/11/15 07:04:20;;;;;;;15.52;8.82;;;15.80;1.00;;;;;;4860694;29;20072;-55
2022/11/15 07:07:06;;;;;;;16.85;8.35;;;15.80;1.00;;;;;;4862091;29;20150;-55
2022/11/15 07:09:51;;;;;;;19.20;8.65;;;15.80;1.00;;;;;;4863808;29;20068;-51
2022/11/15 07:12:37;;;;;;;19.02;8.48;;;15.80;1.00;;;;;;4863979;29;20056;-53
2022/11/15 07:15:26;;;;;;;17.15;8.43;;;15.80;1.00;;;;;;4864206;29;20201;-56
2022/11/15 07:18:11;;;;;;;15.77;9.15;;;15.80;1.00;;;;;;4863738;29;20222;-54
2022/11/15 07:21:04;;;;;;;13.68;7.97;;;15.80;1.00;;;;;;4857839;29;20060;-53
2022/11/15 07:23:50;;;;;;;11.90;7.72;;;15.80;1.00;;;;;;4862585;29;20057;-55
2022/11/15 07:26:35;;;;;;;15.45;8.52;;;15.80;1.00;;;;;;4863571;29;20052;-52
2022/11/15 07:29:20;;;;;;;13.70;8.20;;;15.80;1.00;;;;;;4863646;29;20093;-54
2022/11/15 07:32:06;;;;;;;13.38;7.70;;;15.80;1.00;;;;;;4863283;29;20053;-53
2022/11/15 07:34:51;;;;;;;14.20;8.43;;;15.80;1.00;;;;;;4863437;29;20068;-52
2022/11/15 07:37:37;;;;;;;12.20;7.90;;;15.80;1.00;;;;;;4863693;29;20082;-55
2022/11/15 07:40:23;;;;;;;15.07;7.38;;;15.70;1.00;;;;;;4862983;29;20481;-56
2022/11/15 07:43:08;;;;;;;16.75;8.85;;;15.70;1.00;;;;;;4863361;29;20069;-51
2022/11/15 07:45:54;;;;;;;12.70;7.70;;;15.70;1.00;;;;;;4863135;29;20129;-54
2022/11/15 07:48:43;;;;;;;14.75;7.90;;;15.70;1.00;;;;;;4863475;29;20133;-54
2022/11/15 07:51:30;;;;;;;12.70;7.28;;;15.70;1.00;;;;;;4863301;29;20060;-56
2022/11/15 07:54:16;;;;;;;11.50;7.15;;;15.70;1.00;;;;;;4863496;29;20080;-56
2022/11/15 07:57:01;;;;;;;13.40;7.80;;;15.70;1.00;;;;;;4863081;29;20567;-55
2022/11/15 07:59:52;;;;;;;15.63;7.55;;;15.70;1.00;;;;;;4862855;29;20150;-53
2022/11/15 08:02:37;;;;;;;13.52;9.13;;;15.70;1.00;;;;;;4863031;29;20485;-50
2022/11/15 08:05:23;;;;;;;10.15;6.75;;;15.70;1.00;;;;;;4863435;29;20056;-53
2022/11/15 08:08:11;;;;;;;11.75;7.47;;;15.70;1.00;;;;;;4862622;29;20056;-52
2022/11/15 08:11:00;;;;;;;13.68;7.07;;;15.70;1.00;;;;;;4863036;29;20142;-53
2022/11/15 08:13:45;;;;;;;11.60;7.10;;;15.70;1.00;;;;;;4862830;29;20093;-50
2022/11/15 08:16:31;;;;;;;11.80;6.68;;;15.70;1.00;;;;;;4862677;29;20526;-54
2022/11/15 08:19:16;;;;;;;11.38;6.93;;;15.70;1.00;;;;;;4861237;29;20113;-51
2022/11/15 08:22:02;;;;;;;12.38;7.00;;;15.70;1.00;;;;;;4862857;29;20079;-54
2022/11/15 08:24:47;;;;;;;10.38;7.13;;;15.70;1.00;;;;;;4862520;29;20068;-56
2022/11/15 08:27:33;;;;;;;16.27;8.00;;;15.70;1.00;;;;;;4862420;29;20053;-53
2022/11/15 08:30:18;;;;;;;10.00;5.68;;;15.70;1.00;;;;;;4862377;29;20057;-56
2022/11/15 08:33:04;;;;;;;11.38;6.65;;;15.70;1.00;;;;;;4862112;29;20445;-56
2022/11/15 08:35:49;;;;;;;11.20;5.80;;;15.70;1.00;;;;;;4862499;29;20188;-56
2022/11/15 08:38:35;;;;;;;10.60;6.97;;;15.70;1.00;;;;;;4862088;29;20064;-54
2022/11/15 08:41:33;;;;;;;9.95;6.32;;;15.70;1.00;;;;;;4862048;29;20158;-54
2022/11/15 08:44:18;;;;;;;10.10;5.90;;;15.70;1.00;;;;;;4862087;29;20129;-55
2022/11/15 08:47:04;;;;;;;10.02;5.88;;;15.70;1.00;;;;;;4862008;29;20052;-55
2022/11/15 08:49:50;;;;;;;9.68;5.43;;;15.70;1.00;;;;;;4861655;29;20052;-56
2022/11/15 08:52:35;;;;;;;10.80;5.00;;;15.70;1.00;;;;;;4862068;29;20499;-55
2022/11/15 08:55:21;;;;;;;10.50;5.80;;;15.70;1.00;;;;;;4861904;29;20133;-53
2022/11/15 08:58:09;;;;;;;11.57;6.10;;;15.70;1.00;;;;;;4861767;29;20531;-55
2022/11/15 09:00:55;;;;;;;7.95;5.22;;;15.70;1.00;;;;;;4862042;29;20106;-53
2022/11/15 09:03:40;;;;;;;10.00;4.97;;;15.70;1.00;;;;;;4861742;29;20056;-55
2022/11/15 09:06:26;;;;;;;8.23;5.55;;;15.70;1.00;;;;;;4861902;29;20172;-55
2022/11/15 09:09:11;;;;;;;8.27;5.50;;;15.70;1.00;;;;;;4861317;29;20089;-55
2022/11/15 09:11:57;;;;;;;11.25;5.43;;;15.70;1.00;;;;;;4861905;29;20407;-54
2022/11/15 09:14:47;;;;;;;8.95;4.97;;;15.70;1.00;;;;;;4861275;29;20194;-54
2022/11/15 09:17:32;;;;;;;9.50;5.03;;;15.70;1.00;;;;;;4861653;29;20060;-56
2022/11/15 09:20:18;;;;;;;8.73;5.45;;;15.70;1.00;;;;;;4861199;29;20052;-56
2022/11/15 09:23:04;;;;;;;8.82;5.28;;;15.70;1.00;;;;;;4861272;29;20067;-56
2022/11/15 09:25:50;;;;;;;8.45;4.72;;;15.70;1.00;;;;;;4861269;29;20139;-54
2022/11/15 09:28:37;;;;;;;7.80;4.95;;;15.70;1.00;;;;;;4861290;29;20060;-56
2022/11/15 09:31:23;;;;;;;7.82;4.88;;;15.70;1.00;;;;;;4860808;29;20407;-54
2022/11/15 09:34:08;;;;;;;6.85;4.47;;;15.80;1.00;;;;;;4861500;29;20065;-55
2022/11/15 09:36:53;;;;;;;7.55;4.47;;;15.70;1.00;;;;;;4861395;29;20056;-55
2022/11/15 09:39:39;;;;;;;6.75;4.95;;;15.80;1.00;;;;;;4860589;29;20113;-55
2022/11/15 09:42:37;;;;;;;9.43;4.72;;;15.70;1.00;;;;;;4861420;29;20092;-55
2022/11/15 09:45:31;;;;;;;6.70;3.55;;;15.80;1.00;;;;;;4860824;29;20075;-53
2022/11/15 09:48:53;;;;;;;6.40;4.07;;;15.80;1.00;;;;;;4860357;29;20061;-56
2022/11/15 09:51:46;;;;;;;6.20;3.53;;;15.80;1.00;;;;;;4860859;29;20053;-55
2022/11/15 09:54:33;;;;;;;8.23;3.80;;;15.80;1.00;;;;;;4860943;29;20074;-55
2022/11/15 09:57:49;;;;;;;6.90;3.17;;;15.80;1.00;;;;;;4860699;29;20045;-53
2022/11/15 10:00:21;;;;;;;5.90;3.47;;;15.80;1.00;;;;;;4860629;29;20467;-54
2022/11/15 10:03:23;;;;;;;6.85;3.55;;;15.80;1.00;;;;;;4860882;29;20049;-56
2022/11/15 10:05:54;;;;;;;7.35;3.40;;;15.80;1.00;;;;;;4860981;29;20041;-55
2022/11/15 10:08:30;;;;;;;5.85;3.72;;;15.80;1.00;;;;;;4860678;29;20420;-53
2022/11/15 10:11:10;;;;;;;6.53;3.35;;;15.80;1.00;;;;;;4860928;29;20076;-53
2022/11/15 10:14:01;;;;;;;9.63;3.67;;;15.80;1.00;;;;;;4861127;29;20061;-55
2022/11/15 10:16:52;;;;;;;4.60;2.78;;;15.80;1.00;;;;;;4860784;29;20045;-53
2022/11/15 10:19:56;;;;;;;5.13;3.75;;;15.80;1.00;;;;;;4860515;29;20045;-55
2022/11/15 10:23:00;;;;;;;6.15;3.20;;;15.80;1.00;;;;;;4860862;29;20086;-51
2022/11/15 10:25:29;;;;;;;5.70;3.50;;;15.80;1.00;;;;;;4849167;29;20061;-51
2022/11/15 10:28:00;;;;;;;7.85;2.90;;;15.80;1.00;;;;;;4860881;29;20381;-52
2022/11/15 10:30:39;;;;;;;6.82;2.45;;;15.80;1.00;;;;;;4860206;29;20045;-52
2022/11/15 10:33:26;;;;;;;5.75;2.70;;;15.80;1.00;;;;;;4860431;29;20439;-52
2022/11/15 10:36:08;;;;;;;6.25;3.13;;;15.80;1.00;;;;;;4861232;29;20052;-53
2022/11/15 10:38:50;;;;;;;5.22;2.42;;;15.80;1.00;;;;;;4860495;29;20510;-53
2022/11/15 10:41:29;;;;;;;4.63;3.33;;;15.80;1.00;;;;;;4860524;29;20055;-52
2022/11/15 10:44:14;;;;;;;6.07;2.80;;;15.80;1.00;;;;;;4864318;29;20045;-55
2022/11/15 10:46:42;;;;;;;6.22;2.30;;;15.90;1.00;;;;;;4864228;29;20045;-51
2022/11/15 10:49:14;;;;;;;5.65;2.67;;;15.80;1.00;;;;;;4863966;29;20465;-50
2022/11/15 10:51:51;;;;;;;5.35;2.10;;;15.80;1.00;;;;;;4864065;29;20049;-53
2022/11/15 10:54:47;;;;;;;4.93;2.60;;;15.90;1.00;;;;;;4864037;29;20056;-50
2022/11/15 10:57:17;;;;;;;4.22;2.58;;;15.90;1.00;;;;;;4864231;29;20052;-54
2022/11/15 10:59:56;;;;;;;6.00;2.72;;;15.90;1.00;;;;;;4863562;29;20064;-55
2022/11/15 11:02:39;;;;;;;4.45;3.03;;;15.90;1.00;;;;;;4863920;29;20143;-56
2022/11/15 11:05:24;;;;;;;4.30;2.50;;;15.90;1.00;;;;;;4863579;29;20128;-54
2022/11/15 11:08:11;;;;;;;5.00;3.05;;;15.90;1.00;;;;;;4863912;29;20049;-52
2022/11/15 11:10:39;;;;;;;3.42;2.13;;;15.90;1.00;;;;;;4863446;29;20048;-52
2022/11/15 11:13:30;;;;;;;3.63;2.03;;;15.90;1.00;;;;;;4863211;29;20041;-56
2022/11/15 11:16:22;;;;;;;4.57;2.40;;;15.90;1.00;;;;;;4863479;29;20518;-49
2022/11/15 11:19:24;;;;;;;4.55;2.28;;;15.90;1.00;;;;;;4863109;29;20455;-51
2022/11/15 11:22:19;;;;;;;4.85;2.45;;;15.90;1.00;;;;;;4863895;29;20049;-54
2022/11/15 11:24:56;;;;;;;3.78;2.05;;;15.90;1.00;;;;;;4863299;29;20052;-55
2022/11/15 11:27:56;;;;;;;4.10;1.83;;;16.00;1.00;;;;;;4863440;29;20500;-52
2022/11/15 11:30:38;;;;;;;4.72;1.77;;;15.90;1.00;;;;;;4863123;29;20049;-53
2022/11/15 11:33:23;;;;;;;3.28;1.70;;;15.90;1.00;;;;;;4863363;29;20037;-51
2022/11/15 11:36:27;;;;;;;3.13;1.95;;;16.00;1.00;;;;;;4863410;29;20053;-51
2022/11/15 11:39:16;;;;;;;2.53;1.40;;;15.90;1.00;;;;;;4862959;29;20457;-55
2022/11/15 11:42:13;;;;;;;2.95;1.80;;;15.90;1.00;;;;;;4863219;29;20054;-54
2022/11/15 11:44:51;;;;;;;6.10;2.60;;;16.00;1.00;;;;;;4862980;29;20049;-54
2022/11/15 11:47:24;;;;;;;2.15;1.45;;;16.00;1.00;;;;;;4863221;29;20404;-52
2022/11/15 11:49:55;;;;;;;4.82;2.00;;;16.00;1.00;;;;;;4862933;29;20051;-54
2022/11/15 11:52:40;;;;;;;3.75;1.48;;;16.00;1.00;;;;;;4863155;29;20053;-54
2022/11/15 11:55:19;;;;;;;2.80;2.08;;;16.00;1.00;;;;;;4862794;29;20072;-56
2022/11/15 11:58:12;;;;;;;4.00;1.98;;;16.00;1.00;;;;;;4862947;29;20041;-55
2022/11/15 12:00:47;;;;;;;5.32;2.22;;;16.00;1.00;;;;;;4862586;29;20120;-54
2022/11/15 12:03:25;;;;;;;5.07;1.80;;;16.00;1.00;;;;;;4862919;29;20052;-52
2022/11/15 12:05:57;;;;;;;3.13;2.10;;;16.00;1.00;;;;;;4862964;29;20042;-51
2022/11/15 12:08:59;;;;;;;3.67;1.88;;;16.00;1.00;;;;;;4862577;29;20444;-50
2022/11/15 12:11:45;;;;;;;3.13;1.58;;;16.00;1.00;;;;;;4862561;29;20042;-52
2022/11/15 12:14:32;;;;;;;3.78;1.77;;;16.00;1.00;;;;;;4862790;29;20508;-53
2022/11/15 12:17:00;;;;;;;3.28;1.90;;;16.00;1.00;;;;;;4862600;29;20056;-54
2022/11/15 12:19:29;;;;;;;7.40;1.77;;;16.00;1.00;;;;;;4862482;29;20045;-50
2022/11/15 12:22:06;;;;;;;6.57;1.80;;;16.00;1.00;;;;;;4862245;29;20056;-56
2022/11/15 12:24:45;;;;;;;4.18;1.60;;;16.00;1.00;;;;;;4862765;29;20050;-50
2022/11/15 12:27:39;;;;;;;3.75;1.30;;;16.00;1.00;;;;;;4862680;29;20121;-51
2022/11/15 12:30:23;;;;;;;2.25;1.42;;;16.00;1.00;;;;;;4862034;29;20400;-51
2022/11/15 12:32:56;;;;;;;3.40;1.40;;;16.00;1.00;;;;;;4862256;29;20132;-53
2022/11/15 12:35:40;;;;;;;4.90;1.80;;;16.00;1.00;;;;;;4862052;29;20457;-52
2022/11/15 12:38:49;;;;;;;4.88;1.65;;;16.00;1.00;;;;;;4862261;29;20046;-52
2022/11/15 12:41:18;;;;;;;4.40;1.30;;;16.00;1.00;;;;;;4862075;29;20527;-54
2022/11/15 12:43:47;;;;;;;2.83;1.70;;;16.00;1.00;;;;;;4862151;29;20053;-53
2022/11/15 12:46:45;;;;;;;2.28;1.55;;;16.00;1.00;;;;;;4862136;29;20101;-50
2022/11/15 12:49:27;;;;;;;4.13;1.40;;;16.00;1.00;;;;;;4861695;29;20050;-53
2022/11/15 12:51:57;;;;;;;1.75;1.25;;;16.00;1.00;;;;;;4861921;29;20042;-52
2022/11/15 12:54:23;;;;;;;5.32;1.60;;;16.00;1.00;;;;;;4862490;29;20038;-50
2022/11/15 12:57:02;;;;;;;4.85;1.38;;;16.00;1.00;;;;;;4861947;29;20461;-56
2022/11/15 12:59:47;;;;;;;2.35;1.17;;;16.00;1.00;;;;;;4861463;29;20050;-54
2022/11/15 13:02:22;;;;;;;4.30;1.45;;;16.00;1.00;;;;;;4862149;29;20428;-54
2022/11/15 13:04:51;;;;;;;7.22;1.50;;;16.00;1.00;;;;;;4861583;29;20049;-52
2022/11/15 13:07:53;;;;;;;3.50;1.40;;;16.00;1.00;;;;;;4861845;29;20046;-54
2022/11/15 13:10:37;;;;;;;3.28;1.30;;;16.00;1.00;;;;;;4804504;29;20051;-55
2022/11/15 13:13:08;;;;;;;5.18;1.90;;;16.00;1.00;;;;;;4857611;29;20049;-55
2022/11/15 13:15:55;;;;;;;4.78;1.63;;;16.00;1.00;;;;;;4861755;29;20136;-50
2022/11/15 13:18:38;;;;;;;3.08;1.85;;;16.00;1.00;;;;;;4861248;29;20420;-54
2022/11/15 13:24:14;;;;;;;2.35;1.33;;;16.00;1.00;;;;;;4862151;29;20060;-53
2022/11/15 13:26:41;;;;;;;2.30;1.13;;;16.00;1.00;;;;;;4861110;29;20046;-54
2022/11/15 13:29:16;;;;;;;2.13;1.52;;;16.00;1.00;;;;;;4861031;29;20362;-51
2022/11/15 13:31:44;;;;;;;3.45;1.70;;;16.00;1.00;;;;;;4860995;29;20041;-52
2022/11/15 13:34:33;;;;;;;2.70;1.33;;;16.00;1.00;;;;;;4861371;29;20045;-53
2022/11/15 13:37:20;;;;;;;3.75;1.35;;;16.00;1.00;;;;;;4861115;29;20078;-51
2022/11/15 13:39:48;;;;;;;2.92;1.17;;;16.00;1.00;;;;;;4861160;29;20075;-49
2022/11/15 13:42:17;;;;;;;2.10;1.10;;;16.00;1.00;;;;;;4861102;29;20049;-54
2022/11/15 13:45:00;;;;;;;5.25;1.20;;;16.00;1.00;;;;;;4861073;29;20088;-54
2022/11/15 13:47:29;;;;;;;5.80;1.70;;;16.00;1.00;;;;;;4861303;29;20042;-53
2022/11/15 13:50:00;;;;;;;2.35;0.98;;;16.00;1.00;;;;;;4860905;29;20503;-52
2022/11/15 13:52:36;;;;;;;1.60;0.95;;;16.00;1.00;;;;;;4861032;29;20049;-54
2022/11/15 13:55:08;;;;;;;2.67;1.52;;;16.10;1.00;;;;;;4861463;29;20041;-52
2022/11/15 13:57:57;;;;;;;3.63;1.33;;;16.10;1.00;;;;;;4861004;29;20041;-51
2022/11/15 14:00:26;;;;;;;4.25;1.08;;;16.10;1.00;;;;;;4859580;29;20061;-57
2022/11/15 14:02:55;;;;;;;6.00;1.50;;;16.10;1.00;;;;;;4860862;29;20511;-53
2022/11/15 14:05:24;;;;;;;2.90;1.20;;;16.10;1.00;;;;;;4860868;29;20094;-54
2022/11/15 14:08:02;;;;;;;5.97;1.40;;;16.10;1.00;;;;;;4860737;29;20076;-55
2022/11/15 14:10:39;;;;;;;3.83;1.63;;;16.10;1.00;;;;;;4860264;29;20049;-54
2022/11/15 14:13:32;;;;;;;2.30;0.85;;;16.10;1.00;;;;;;4860958;29;20049;-53
2022/11/15 14:16:20;;;;;;;4.07;1.20;;;16.10;1.00;;;;;;4861634;29;20069;-51
2022/11/15 14:18:51;;;;;;;3.00;0.90;;;16.10;1.00;;;;;;4864609;29;20049;-52
2022/11/15 14:21:19;;;;;;;1.90;0.85;;;16.10;1.00;;;;;;4864662;29;20052;-50
2022/11/15 14:23:46;;;;;;;6.05;0.85;;;16.10;1.00;;;;;;4864378;29;20076;-55
2022/11/15 14:26:34;;;;;;;3.75;1.13;;;16.10;1.00;;;;;;4864584;29;20098;-55
2022/11/15 14:29:24;;;;;;;1.73;0.90;;;16.00;1.00;;;;;;4863921;29;20057;-53
2022/11/15 14:31:52;;;;;;;2.42;0.82;;;16.10;1.00;;;;;;4864927;29;20046;-53
2022/11/15 14:34:33;;;;;;;6.82;1.20;;;16.10;1.00;;;;;;5090611;27;20428;-53
2022/11/15 14:37:00;;;;;;;1.50;0.80;;;16.00;1.00;;;;;;5090697;28;20486;-52
2022/11/15 14:39:27;;;;;;;3.17;1.15;;;16.00;1.00;;;;;;5090461;28;20040;-53
2022/11/15 14:41:54;;;;;;;3.15;1.58;;;16.00;1.00;;;;;;5090547;28;20042;-53
2022/11/15 14:44:21;;;;;;;1.98;0.85;;;16.10;1.00;;;;;;5090335;28;20040;-54
2022/11/15 14:46:48;;;;;;;4.68;0.95;;;16.10;1.00;;;;;;5090456;28;20051;-54